createdAt,value
2018-03-26T00:00:56.817Z,20.17
2018-03-26T00:03:25.227Z,20.13
2018-03-26T00:05:53.710Z,19.70
2018-03-26T00:08:22.295Z,21.80
2018-03-26T00:10:50.977Z,22.13
2018-03-26T00:13:21.008Z,20.10
2018-03-26T00:15:50.148Z,20.30
2018-03-26T00:18:18.515Z,20.23
2018-03-26T00:20:47.223Z,24.93
2018-03-26T00:23:15.670Z,31.97
2018-03-26T00:25:44.757Z,26.00
2018-03-26T00:28:13.479Z,31.50
2018-03-26T00:30:42.123Z,20.17
2018-03-26T00:33:11.630Z,21.83
2018-03-26T00:35:42.108Z,26.20
2018-03-26T00:38:12.095Z,28.03
2018-03-26T00:40:41.896Z,24.37
2018-03-26T00:43:10.811Z,22.33
2018-03-26T00:45:40.302Z,24.73
2018-03-26T00:48:09.738Z,23.33
2018-03-26T00:50:38.253Z,22.50
2018-03-26T00:53:08.164Z,21.17
2018-03-26T00:55:37.566Z,17.57
2018-03-26T00:58:06.410Z,18.40
2018-03-26T01:00:34.776Z,20.03
2018-03-26T01:03:10.045Z,21.37
2018-03-26T01:05:38.493Z,24.30
2018-03-26T01:08:07.193Z,22.23
2018-03-26T01:10:36.480Z,20.93
2018-03-26T01:13:05.361Z,21.70
2018-03-26T01:15:34.468Z,23.30
2018-03-26T01:18:04.392Z,23.20
2018-03-26T01:20:35.156Z,24.40
2018-03-26T01:23:03.639Z,23.07
2018-03-26T01:25:32.279Z,21.83
2018-03-26T01:28:00.677Z,23.33
2018-03-26T01:30:31.346Z,23.67
2018-03-26T01:33:00.151Z,23.23
2018-03-26T01:35:29.070Z,23.80
2018-03-26T01:37:57.622Z,24.07
2018-03-26T01:40:26.159Z,25.27
2018-03-26T01:42:55.030Z,24.10
2018-03-26T01:45:24.228Z,24.67
2018-03-26T01:47:52.589Z,23.87
2018-03-26T01:50:21.341Z,23.67
2018-03-26T01:52:50.830Z,25.47
2018-03-26T01:55:20.141Z,28.43
2018-03-26T01:57:49.174Z,30.43
2018-03-26T02:00:17.876Z,32.07
2018-03-26T02:02:46.613Z,36.07
2018-03-26T02:05:14.969Z,33.87
2018-03-26T02:07:44.362Z,32.53
2018-03-26T02:10:12.821Z,30.33
2018-03-26T02:12:41.824Z,31.97
2018-03-26T02:15:10.295Z,34.73
2018-03-26T02:17:38.703Z,30.80
2018-03-26T02:20:07.357Z,35.13
2018-03-26T02:22:37.096Z,32.87
2018-03-26T02:25:05.465Z,30.97
2018-03-26T02:27:34.924Z,28.53
2018-03-26T02:30:03.802Z,28.00
2018-03-26T02:32:33.798Z,27.87
2018-03-26T02:35:02.293Z,27.13
2018-03-26T02:37:32.388Z,27.53
2018-03-26T02:40:01.016Z,26.43
2018-03-26T02:42:29.641Z,28.33
2018-03-26T02:45:00.086Z,25.97
2018-03-26T02:47:30.140Z,26.87
2018-03-26T02:49:58.739Z,26.70
2018-03-26T02:52:27.162Z,22.10
2018-03-26T02:54:56.362Z,22.53
2018-03-26T02:57:25.008Z,22.80
2018-03-26T02:59:54.001Z,23.97
2018-03-26T03:02:23.211Z,24.23
2018-03-26T03:04:51.898Z,23.20
2018-03-26T03:07:20.692Z,21.87
2018-03-26T03:09:49.872Z,21.43
2018-03-26T03:12:18.228Z,22.60
2018-03-26T03:14:47.141Z,22.27
2018-03-26T03:17:16.086Z,24.53
2018-03-26T03:19:44.445Z,22.23
2018-03-26T03:22:13.005Z,23.57
2018-03-26T03:24:41.548Z,23.10
2018-03-26T03:27:09.922Z,22.87
2018-03-26T03:29:38.279Z,25.10
2018-03-26T03:32:07.262Z,24.13
2018-03-26T03:34:35.948Z,24.13
2018-03-26T03:37:04.618Z,26.13
2018-03-26T03:39:33.165Z,24.20
2018-03-26T03:42:01.668Z,25.77
2018-03-26T03:44:30.020Z,27.03
2018-03-26T03:46:59.877Z,27.50
2018-03-26T03:49:28.962Z,21.47
2018-03-26T03:51:57.995Z,21.03
2018-03-26T03:54:26.784Z,19.50
2018-03-26T03:56:55.601Z,19.53
2018-03-26T03:59:24.084Z,20.43
2018-03-26T04:01:52.875Z,20.90
2018-03-26T04:04:21.436Z,20.43
2018-03-26T04:06:49.908Z,18.70
2018-03-26T04:09:18.701Z,19.07
2018-03-26T04:11:47.059Z,18.70
2018-03-26T04:14:16.646Z,20.17
2018-03-26T04:16:45.643Z,19.70
2018-03-26T04:19:14.281Z,18.87
2018-03-26T04:21:44.523Z,18.93
2018-03-26T04:24:12.965Z,18.93
2018-03-26T04:26:41.325Z,19.17
2018-03-26T04:29:09.693Z,19.53
2018-03-26T04:31:39.236Z,19.97
2018-03-26T04:34:08.103Z,20.93
2018-03-26T04:36:36.971Z,19.33
2018-03-26T04:39:06.113Z,18.30
2018-03-26T04:41:34.531Z,18.20
2018-03-26T04:44:02.910Z,15.60
2018-03-26T04:46:31.262Z,16.47
2018-03-26T04:48:59.638Z,20.80
2018-03-26T04:51:29.071Z,23.27
2018-03-26T04:53:58.397Z,22.80
2018-03-26T04:56:27.682Z,19.57
2018-03-26T04:58:56.550Z,19.37
2018-03-26T05:01:26.101Z,17.43
2018-03-26T05:03:54.728Z,19.03
2018-03-26T05:06:23.520Z,15.80
2018-03-26T05:08:51.908Z,16.33
2018-03-26T05:11:20.811Z,13.63
2018-03-26T05:13:49.198Z,11.20
2018-03-26T05:16:19.235Z,11.90
2018-03-26T05:18:49.182Z,14.40
2018-03-26T05:21:17.632Z,16.87
2018-03-26T05:23:46.425Z,19.17
2018-03-26T05:26:15.071Z,18.87
2018-03-26T05:28:44.039Z,16.73
2018-03-26T05:31:13.289Z,15.03
2018-03-26T05:33:42.529Z,15.20
2018-03-26T05:36:11.466Z,16.50
2018-03-26T05:38:40.698Z,17.40
2018-03-26T05:41:10.250Z,23.10
2018-03-26T05:43:39.588Z,22.67
2018-03-26T05:46:09.900Z,23.77
2018-03-26T05:48:38.804Z,20.60
2018-03-26T05:51:07.200Z,19.40
2018-03-26T05:53:35.976Z,22.43
2018-03-26T05:56:05.918Z,20.87
2018-03-26T05:58:34.859Z,21.47
2018-03-26T06:01:04.707Z,21.13
2018-03-26T06:03:34.219Z,19.83
2018-03-26T06:06:03.471Z,24.43
2018-03-26T06:08:33.039Z,29.57
2018-03-26T06:11:02.234Z,26.40
2018-03-26T06:13:32.955Z,24.33
2018-03-26T06:16:02.909Z,25.27
2018-03-26T06:18:31.710Z,22.10
2018-03-26T06:21:01.388Z,20.93
2018-03-26T06:23:30.085Z,23.67
2018-03-26T06:25:59.771Z,25.60
2018-03-26T06:28:28.617Z,28.50
2018-03-26T06:30:59.076Z,27.50
2018-03-26T06:33:28.183Z,28.67
2018-03-26T06:35:57.778Z,32.77
2018-03-26T06:38:32.424Z,30.07
2018-03-26T06:41:01.067Z,31.17
2018-03-26T06:43:29.489Z,35.90
2018-03-26T06:45:58.161Z,35.30
2018-03-26T06:48:26.653Z,35.87
2018-03-26T06:50:55.155Z,31.17
2018-03-26T06:53:23.529Z,28.00
2018-03-26T06:55:51.884Z,25.67
2018-03-26T06:58:20.734Z,23.00
2018-03-26T07:00:49.185Z,24.87
2018-03-26T07:03:18.389Z,23.57
2018-03-26T07:05:48.182Z,26.80
2018-03-26T07:08:17.631Z,24.40
2018-03-26T07:10:46.177Z,21.90
2018-03-26T07:13:15.347Z,18.10
2018-03-26T07:15:43.884Z,36.43
2018-03-26T07:18:12.278Z,20.80
2018-03-26T07:20:40.629Z,22.50
2018-03-26T07:23:09.386Z,26.77
2018-03-26T07:25:38.429Z,28.67
2018-03-26T07:28:06.938Z,28.30
2018-03-26T07:30:35.342Z,29.07
2018-03-26T07:33:04.464Z,28.20
2018-03-26T07:35:32.817Z,29.77
2018-03-26T07:38:02.044Z,31.13
2018-03-26T07:40:30.437Z,31.40
2018-03-26T07:42:59.048Z,30.23
2018-03-26T07:45:27.895Z,26.17
2018-03-26T07:47:56.286Z,26.37
2018-03-26T07:50:24.689Z,24.60
2018-03-26T07:52:53.904Z,22.50
2018-03-26T07:55:22.325Z,23.93
2018-03-26T07:57:52.115Z,22.83
2018-03-26T08:00:20.722Z,22.10
2018-03-26T08:02:50.059Z,32.60
2018-03-26T08:05:18.514Z,29.37
2018-03-26T08:07:47.830Z,24.13
2018-03-26T08:10:16.689Z,26.47
2018-03-26T08:12:45.114Z,25.07
2018-03-26T08:15:13.802Z,25.43
2018-03-26T08:17:42.708Z,26.50
2018-03-26T08:20:11.280Z,27.90
2018-03-26T08:22:39.639Z,27.43
2018-03-26T08:25:08.275Z,26.20
2018-03-26T08:27:36.746Z,29.30
2018-03-26T08:30:05.463Z,24.10
2018-03-26T08:32:34.682Z,25.40
2018-03-26T08:35:03.625Z,25.37
2018-03-26T08:37:32.681Z,24.67
2018-03-26T08:40:01.035Z,26.70
2018-03-26T08:42:29.457Z,27.70
2018-03-26T08:44:58.395Z,28.33
2018-03-26T08:47:27.947Z,29.00
2018-03-26T08:49:56.394Z,27.93
2018-03-26T08:52:25.583Z,26.80
2018-03-26T08:54:54.590Z,27.37
2018-03-26T08:57:23.446Z,29.03
2018-03-26T08:59:51.865Z,27.53
2018-03-26T09:02:21.335Z,28.30
2018-03-26T09:04:49.760Z,29.37
2018-03-26T09:07:18.671Z,29.50
2018-03-26T09:09:47.139Z,29.67
2018-03-26T09:12:15.526Z,26.30
2018-03-26T09:14:43.872Z,30.27
2018-03-26T09:17:12.224Z,28.73
2018-03-26T09:19:40.585Z,30.23
2018-03-26T09:22:09.253Z,30.97
2018-03-26T09:24:38.575Z,29.73
2018-03-26T09:27:07.368Z,30.53
2018-03-26T09:29:36.528Z,25.97
2018-03-26T09:32:05.141Z,27.07
2018-03-26T09:34:33.890Z,25.73
2018-03-26T09:37:03.271Z,24.57
2018-03-26T09:39:31.814Z,23.43
2018-03-26T09:42:00.606Z,22.10
2018-03-26T09:44:29.018Z,22.50
2018-03-26T09:46:57.541Z,20.50
2018-03-26T09:49:26.282Z,18.33
2018-03-26T09:51:55.841Z,22.13
2018-03-26T09:54:24.449Z,20.97
2018-03-26T09:56:53.559Z,19.20
2018-03-26T09:59:22.698Z,20.80
2018-03-26T10:01:57.199Z,19.73
2018-03-26T10:04:26.544Z,17.30
2018-03-26T10:06:56.078Z,18.73
2018-03-26T10:09:24.791Z,18.10
2018-03-26T10:11:53.343Z,15.73
2018-03-26T10:14:23.004Z,17.00
2018-03-26T10:16:51.357Z,18.07
2018-03-26T10:19:20.102Z,16.77
2018-03-26T10:21:49.160Z,16.40
2018-03-26T10:24:17.522Z,11.27
2018-03-26T10:26:46.654Z,8.83
2018-03-26T10:29:15.339Z,7.77
2018-03-26T10:31:44.020Z,7.37
2018-03-26T10:34:12.513Z,7.57
2018-03-26T10:36:40.981Z,7.03
2018-03-26T10:39:09.342Z,6.70
2018-03-26T10:41:37.833Z,7.57
2018-03-26T10:44:06.907Z,6.73
2018-03-26T10:46:35.467Z,5.40
2018-03-26T10:49:04.707Z,5.37
2018-03-26T10:51:33.308Z,5.07
2018-03-26T10:54:02.089Z,5.07
2018-03-26T10:56:31.320Z,5.40
2018-03-26T10:58:59.676Z,20.03
2018-03-26T11:01:29.378Z,8.93
2018-03-26T11:03:57.871Z,5.50
2018-03-26T11:06:26.362Z,6.97
2018-03-26T11:08:54.721Z,8.50
2018-03-26T11:11:23.627Z,9.10
2018-03-26T11:13:52.045Z,11.07
2018-03-26T11:16:20.896Z,10.70
2018-03-26T11:18:50.206Z,9.83
2018-03-26T11:21:19.032Z,8.87
2018-03-26T11:23:47.514Z,9.73
2018-03-26T11:26:16.317Z,10.00
2018-03-26T11:28:44.678Z,8.40
2018-03-26T11:31:14.229Z,8.53
2018-03-26T11:33:42.668Z,7.80
2018-03-26T11:36:11.627Z,9.73
2018-03-26T11:38:40.848Z,16.50
2018-03-26T11:41:09.617Z,8.90
2018-03-26T11:43:38.187Z,8.23
2018-03-26T11:46:06.766Z,7.43
2018-03-26T11:48:35.376Z,9.03
2018-03-26T11:51:03.746Z,9.67
2018-03-26T11:53:33.031Z,10.43
2018-03-26T11:56:01.570Z,8.93
2018-03-26T11:58:30.049Z,10.27
2018-03-26T12:00:58.737Z,8.70
2018-03-26T12:03:28.399Z,9.40
2018-03-26T12:05:57.328Z,8.07
2018-03-26T12:08:26.157Z,9.13
2018-03-26T12:10:54.545Z,6.90
2018-03-26T12:13:23.384Z,7.00
2018-03-26T12:15:52.025Z,7.30
2018-03-26T12:18:20.722Z,6.90
2018-03-26T12:21:00.244Z,7.53
2018-03-26T12:23:40.470Z,8.67
2018-03-26T12:26:08.899Z,11.97
2018-03-26T12:28:49.048Z,14.80
2018-03-26T12:31:17.885Z,14.73
2018-03-26T12:33:58.149Z,11.53
2018-03-26T12:36:27.448Z,12.10
2018-03-26T12:38:56.841Z,12.63
2018-03-26T12:41:27.706Z,9.77
2018-03-26T12:43:57.458Z,9.07
2018-03-26T12:46:37.785Z,6.90
2018-03-26T12:49:07.716Z,6.63
2018-03-26T12:51:47.942Z,6.27
2018-03-26T12:54:16.545Z,6.47
2018-03-26T12:56:45.314Z,6.47
2018-03-26T12:59:13.910Z,7.93
2018-03-26T13:01:55.290Z,13.17
2018-03-26T13:04:23.697Z,14.20
2018-03-26T13:06:53.088Z,7.10
2018-03-26T13:09:23.221Z,7.87
2018-03-26T13:11:54.071Z,5.53
2018-03-26T13:14:24.541Z,5.50
2018-03-26T13:16:54.166Z,4.83
2018-03-26T13:19:23.380Z,5.57
2018-03-26T13:21:51.883Z,5.70
2018-03-26T13:24:20.545Z,4.10
2018-03-26T13:26:50.125Z,4.53
2018-03-26T13:29:18.522Z,5.57
2018-03-26T13:31:46.878Z,5.10
2018-03-26T13:34:15.269Z,4.30
2018-03-26T13:36:43.636Z,4.40
2018-03-26T13:39:12.516Z,4.40
2018-03-26T13:41:41.183Z,4.50
2018-03-26T13:44:11.162Z,4.50
2018-03-26T13:46:39.541Z,3.60
2018-03-26T13:49:08.909Z,3.73
2018-03-26T13:51:37.337Z,3.33
2018-03-26T13:54:06.067Z,3.20
2018-03-26T13:56:34.513Z,3.70
2018-03-26T13:59:02.853Z,3.80
2018-03-26T14:01:31.438Z,3.87
2018-03-26T14:04:00.722Z,4.57
2018-03-26T14:06:29.103Z,3.10
2018-03-26T14:09:10.661Z,3.23
2018-03-26T14:14:53.998Z,25.77
2018-03-26T14:17:34.566Z,6.10
2018-03-26T14:20:03.246Z,6.47
2018-03-26T14:22:31.686Z,5.70
2018-03-26T14:25:00.401Z,9.90
2018-03-26T14:27:29.980Z,2.77
2018-03-26T14:29:59.422Z,3.67
2018-03-26T14:32:27.853Z,2.33
2018-03-26T14:35:08.236Z,2.17
2018-03-26T14:37:36.851Z,3.17
2018-03-26T14:40:05.441Z,4.07
2018-03-26T14:42:33.809Z,5.00
2018-03-26T14:45:02.747Z,4.73
2018-03-26T14:47:32.134Z,4.33
2018-03-26T14:50:00.655Z,5.87
2018-03-26T14:52:29.021Z,5.10
2018-03-26T14:54:57.689Z,5.07
2018-03-26T14:57:27.350Z,5.47
2018-03-26T14:59:56.153Z,2.40
2018-03-26T15:02:24.638Z,2.77
2018-03-26T15:04:53.062Z,3.30
2018-03-26T15:07:21.412Z,2.70
2018-03-26T15:09:50.119Z,4.03
2018-03-26T15:12:19.561Z,4.33
2018-03-26T15:14:47.989Z,6.27
2018-03-26T15:17:16.359Z,10.47
2018-03-26T15:19:45.417Z,3.60
2018-03-26T15:22:13.766Z,3.67
2018-03-26T15:24:42.431Z,2.63
2018-03-26T15:27:11.282Z,3.73
2018-03-26T15:29:39.658Z,5.23
2018-03-26T15:32:08.135Z,2.83
2018-03-26T15:34:36.485Z,3.70
2018-03-26T15:37:05.144Z,3.57
2018-03-26T15:39:33.917Z,3.67
2018-03-26T15:42:02.648Z,4.23
2018-03-26T15:44:31.016Z,4.30
2018-03-26T15:46:59.367Z,4.90
2018-03-26T15:49:28.000Z,3.57
2018-03-26T15:51:56.354Z,3.97
2018-03-26T15:54:25.052Z,4.73
2018-03-26T15:56:53.414Z,4.40
2018-03-26T15:59:22.017Z,3.13
2018-03-26T16:01:50.375Z,4.77
2018-03-26T16:04:18.757Z,4.60
2018-03-26T16:06:47.124Z,5.87
2018-03-26T16:09:15.489Z,5.07
2018-03-26T16:11:43.861Z,3.77
2018-03-26T16:14:13.727Z,14.47
2018-03-26T16:16:42.077Z,7.80
2018-03-26T16:19:10.426Z,5.60
2018-03-26T16:21:38.915Z,3.70
2018-03-26T16:24:07.786Z,4.00
2018-03-26T16:26:36.560Z,6.63
2018-03-26T16:29:04.907Z,5.07
2018-03-26T16:31:33.589Z,5.23
2018-03-26T16:34:02.383Z,6.07
2018-03-26T16:36:30.745Z,5.23
2018-03-26T16:38:59.630Z,6.23
2018-03-26T16:41:40.733Z,5.23
2018-03-26T16:44:09.741Z,6.57
2018-03-26T16:46:38.097Z,9.10
2018-03-26T16:49:06.523Z,7.50
2018-03-26T16:51:36.132Z,5.97
2018-03-26T16:54:04.533Z,5.13
2018-03-26T16:56:32.895Z,4.70
2018-03-26T16:59:01.255Z,4.70
2018-03-26T17:01:29.850Z,4.60
2018-03-26T17:03:58.219Z,8.43
2018-03-26T17:06:26.582Z,6.00
2018-03-26T17:08:54.937Z,6.87
2018-03-26T17:11:23.300Z,7.67
2018-03-26T17:13:51.662Z,5.30
2018-03-26T17:16:20.080Z,6.50
2018-03-26T17:18:48.734Z,6.17
2018-03-26T17:21:17.113Z,6.23
2018-03-26T17:23:45.469Z,7.40
2018-03-26T17:26:14.173Z,8.00
2018-03-26T17:28:42.526Z,7.87
2018-03-26T17:31:10.931Z,5.23
2018-03-26T17:33:39.285Z,7.80
2018-03-26T17:36:07.698Z,5.27
2018-03-26T17:38:36.458Z,6.10
2018-03-26T17:41:05.092Z,6.17
2018-03-26T17:43:34.385Z,6.13
2018-03-26T17:46:02.739Z,7.90
2018-03-26T17:48:31.458Z,7.20
2018-03-26T17:51:00.138Z,6.13
2018-03-26T17:53:29.040Z,6.67
2018-03-26T17:55:57.410Z,6.23
2018-03-26T17:58:25.812Z,6.10
2018-03-26T18:00:55.078Z,6.60
2018-03-26T18:03:23.772Z,6.63
2018-03-26T18:05:52.534Z,8.30
2018-03-26T18:08:20.887Z,9.80
2018-03-26T18:10:49.546Z,9.77
2018-03-26T18:13:18.702Z,10.03
2018-03-26T18:15:48.495Z,10.00
2018-03-26T18:18:17.268Z,12.13
2018-03-26T18:20:46.599Z,15.07
2018-03-26T18:23:15.078Z,11.90
2018-03-26T18:25:43.526Z,10.33
2018-03-26T18:28:12.026Z,10.57
2018-03-26T18:30:40.472Z,10.47
2018-03-26T18:33:09.631Z,11.00
2018-03-26T18:35:37.986Z,9.93
2018-03-26T18:38:06.401Z,9.33
2018-03-26T18:40:35.025Z,7.77
2018-03-26T18:43:05.632Z,7.07
2018-03-26T18:45:34.536Z,4.93
2018-03-26T18:48:03.274Z,4.20
2018-03-26T18:50:32.195Z,4.80
2018-03-26T18:53:01.323Z,6.37
2018-03-26T18:55:30.177Z,7.07
2018-03-26T18:57:58.563Z,7.50
2018-03-26T19:00:26.922Z,4.77
2018-03-26T19:02:55.273Z,4.80
2018-03-26T19:05:23.996Z,5.73
2018-03-26T19:07:52.386Z,5.10
2018-03-26T19:10:20.807Z,6.20
2018-03-26T19:12:49.841Z,4.60
2018-03-26T19:15:18.604Z,7.10
2018-03-26T19:17:47.038Z,7.40
2018-03-26T19:20:15.454Z,7.07
2018-03-26T19:22:43.853Z,6.23
2018-03-26T19:25:12.683Z,6.10
2018-03-26T19:27:41.075Z,6.53
2018-03-26T19:30:10.406Z,7.43
2018-03-26T19:32:38.792Z,6.60
2018-03-26T19:35:08.060Z,6.27
2018-03-26T19:37:37.633Z,5.70
2018-03-26T19:40:07.583Z,5.43
2018-03-26T19:42:36.617Z,5.10
2018-03-26T19:45:05.329Z,4.40
2018-03-26T19:47:33.973Z,3.17
2018-03-26T19:50:02.336Z,4.83
2018-03-26T19:52:30.785Z,5.00
2018-03-26T19:54:59.574Z,4.07
2018-03-26T19:57:29.676Z,7.30
2018-03-26T19:59:58.070Z,6.47
2018-03-26T20:02:27.068Z,4.67
2018-03-26T20:04:55.417Z,3.57
2018-03-26T20:07:23.773Z,3.17
2018-03-26T20:09:52.871Z,4.40
2018-03-26T20:12:21.269Z,4.60
2018-03-26T20:14:50.482Z,3.77
2018-03-26T20:17:19.095Z,3.10
2018-03-26T20:19:47.782Z,2.90
2018-03-26T20:22:16.133Z,3.97
2018-03-26T20:24:44.505Z,4.30
2018-03-26T20:27:13.224Z,4.03
2018-03-26T20:29:41.895Z,5.10
2018-03-26T20:32:10.575Z,3.77
2018-03-26T20:34:39.654Z,3.33
2018-03-26T20:37:08.059Z,3.90
2018-03-26T20:39:36.402Z,2.57
2018-03-26T20:42:05.116Z,2.30
2018-03-26T20:44:34.212Z,2.60
2018-03-26T20:47:02.603Z,2.90
2018-03-26T20:49:32.316Z,3.30
2018-03-26T20:52:02.598Z,2.57
2018-03-26T20:54:30.980Z,2.33
2018-03-26T20:56:59.841Z,1.80
2018-03-26T20:59:28.486Z,1.90
2018-03-26T21:01:57.084Z,2.00
2018-03-26T21:04:25.757Z,4.90
2018-03-26T21:06:54.137Z,2.10
2018-03-26T21:09:22.548Z,2.07
2018-03-26T21:11:51.831Z,2.13
2018-03-26T21:14:22.774Z,2.50
2018-03-26T21:16:54.642Z,2.30
2018-03-26T21:19:23.818Z,2.17
2018-03-26T21:21:54.075Z,2.47
2018-03-26T21:24:22.642Z,1.80
2018-03-26T21:26:51.650Z,2.50
2018-03-26T21:29:20.395Z,2.70
2018-03-26T21:31:49.617Z,2.57
2018-03-26T21:34:17.958Z,2.30
2018-03-26T21:36:49.614Z,3.63
2018-03-26T21:39:18.229Z,9.50
2018-03-26T21:41:47.049Z,2.63
2018-03-26T21:44:15.501Z,2.50
2018-03-26T21:46:44.450Z,2.37
2018-03-26T21:49:13.627Z,1.43
2018-03-26T21:51:42.049Z,2.10
2018-03-26T21:54:12.869Z,2.37
2018-03-26T21:56:41.719Z,2.00
2018-03-26T21:59:10.613Z,3.17
2018-03-26T22:01:40.000Z,2.80
2018-03-26T22:04:09.573Z,1.90
2018-03-26T22:06:39.813Z,2.43
2018-03-26T22:09:08.961Z,1.83
2018-03-26T22:11:38.157Z,2.27
2018-03-26T22:14:06.744Z,2.10
2018-03-26T22:16:36.230Z,2.60
2018-03-26T22:19:05.063Z,2.00
2018-03-26T22:21:35.382Z,1.97
2018-03-26T22:24:04.864Z,2.17
2018-03-26T22:26:33.575Z,2.50
2018-03-26T22:29:01.937Z,1.80
2018-03-26T22:31:31.032Z,1.83
2018-03-26T22:34:00.843Z,1.87
2018-03-26T22:36:29.224Z,2.03
2018-03-26T22:38:57.645Z,2.20
2018-03-26T22:41:26.225Z,1.33
2018-03-26T22:43:54.790Z,1.90
2018-03-26T22:46:24.768Z,1.77
2018-03-26T22:48:53.171Z,3.20
2018-03-26T22:51:22.180Z,2.10
2018-03-26T22:53:50.857Z,1.93
2018-03-26T22:56:19.665Z,1.93
2018-03-26T23:01:20.894Z,1.30
2018-03-26T23:03:49.335Z,1.90
2018-03-26T23:06:18.427Z,1.90
2018-03-26T23:08:47.065Z,2.20
2018-03-26T23:11:15.751Z,2.47
2018-03-26T23:13:44.240Z,2.23
2018-03-26T23:16:13.355Z,2.40
2018-03-26T23:18:41.704Z,1.47
2018-03-26T23:21:10.075Z,1.80
2018-03-26T23:23:38.924Z,1.53
2018-03-26T23:26:08.263Z,2.27
2018-03-26T23:28:37.973Z,1.80
2018-03-26T23:31:07.271Z,1.33
2018-03-26T23:33:36.833Z,1.80
2018-03-26T23:36:06.256Z,1.90
2018-03-26T23:38:35.142Z,1.77
2018-03-26T23:41:03.805Z,1.50
2018-03-26T23:43:33.339Z,1.60
2018-03-26T23:46:02.006Z,1.50
2018-03-26T23:48:30.407Z,1.60
2018-03-26T23:50:59.060Z,1.43
2018-03-26T23:53:28.527Z,1.87
2018-03-26T23:55:56.868Z,1.40
2018-03-26T23:58:25.218Z,1.53
